createdAt,value
2018-01-08T00:02:28.748Z,12.63
2018-01-08T00:04:56.268Z,11.03
2018-01-08T00:07:23.850Z,14.10
2018-01-08T00:09:51.366Z,9.17
2018-01-08T00:12:18.872Z,12.47
2018-01-08T00:14:46.382Z,14.53
2018-01-08T00:17:13.921Z,8.40
2018-01-08T00:19:41.489Z,10.23
2018-01-08T00:22:09.026Z,10.83
2018-01-08T00:24:36.510Z,11.90
2018-01-08T00:27:04.012Z,10.20
2018-01-08T00:29:31.515Z,9.30
2018-01-08T00:31:59.032Z,13.97
2018-01-08T00:34:26.520Z,10.47
2018-01-08T00:36:54.048Z,12.57
2018-01-08T00:39:21.567Z,13.70
2018-01-08T00:41:49.079Z,11.70
2018-01-08T00:44:16.579Z,9.60
2018-01-08T00:46:44.088Z,8.27
2018-01-08T00:49:11.580Z,14.37
2018-01-08T00:51:39.072Z,10.90
2018-01-08T00:54:06.581Z,12.60
2018-01-08T00:56:34.091Z,13.97
2018-01-08T00:59:01.584Z,11.00
2018-01-08T01:01:29.082Z,10.67
2018-01-08T01:03:56.585Z,12.53
2018-01-08T01:06:24.068Z,12.80
2018-01-08T01:08:58.418Z,11.07
2018-01-08T01:11:25.910Z,12.10
2018-01-08T01:13:53.417Z,14.20
2018-01-08T01:16:20.934Z,13.30
2018-01-08T01:18:48.422Z,15.70
2018-01-08T01:21:15.912Z,15.33
2018-01-08T01:23:43.404Z,13.40
2018-01-08T01:26:10.907Z,16.23
2018-01-08T01:28:38.447Z,12.83
2018-01-08T01:31:05.941Z,15.70
2018-01-08T01:33:33.446Z,11.73
2018-01-08T01:36:00.975Z,13.17
2018-01-08T01:38:28.480Z,10.93
2018-01-08T01:40:55.971Z,18.73
2018-01-08T01:43:23.911Z,13.50
2018-01-08T01:45:52.256Z,15.53
2018-01-08T01:48:19.749Z,7.93
2018-01-08T01:50:47.244Z,14.27
2018-01-08T01:53:14.728Z,13.07
2018-01-08T01:55:42.268Z,12.13
2018-01-08T01:58:09.744Z,12.90
2018-01-08T02:00:37.265Z,13.60
2018-01-08T02:03:04.760Z,15.93
2018-01-08T02:05:32.239Z,9.37
2018-01-08T02:07:59.744Z,14.03
2018-01-08T02:10:27.242Z,12.33
2018-01-08T02:12:54.761Z,13.50
2018-01-08T02:15:22.256Z,12.80
2018-01-08T02:17:49.783Z,17.40
2018-01-08T02:20:17.286Z,12.87
2018-01-08T02:22:44.796Z,15.73
2018-01-08T02:25:12.319Z,19.10
2018-01-08T02:27:39.874Z,15.73
2018-01-08T02:30:07.392Z,11.90
2018-01-08T02:32:34.916Z,10.10
2018-01-08T02:35:02.417Z,14.27
2018-01-08T02:37:29.934Z,12.40
2018-01-08T02:39:57.664Z,10.20
2018-01-08T02:42:25.185Z,14.50
2018-01-08T02:44:52.707Z,12.37
2018-01-08T02:47:20.205Z,12.57
2018-01-08T02:49:47.710Z,16.13
2018-01-08T02:52:15.226Z,13.83
2018-01-08T02:54:42.711Z,16.87
2018-01-08T02:57:10.211Z,17.13
2018-01-08T02:59:37.732Z,12.80
2018-01-08T03:02:05.219Z,16.70
2018-01-08T03:04:32.733Z,14.60
2018-01-08T03:07:00.454Z,14.20
2018-01-08T03:09:27.955Z,15.07
2018-01-08T03:11:55.455Z,15.90
2018-01-08T03:14:22.957Z,14.73
2018-01-08T03:16:50.460Z,17.47
2018-01-08T03:19:17.956Z,10.73
2018-01-08T03:21:45.447Z,11.70
2018-01-08T03:24:12.940Z,19.57
2018-01-08T03:26:40.461Z,14.67
2018-01-08T03:29:07.952Z,16.97
2018-01-08T03:31:35.497Z,17.67
2018-01-08T03:34:03.940Z,18.13
2018-01-08T03:36:31.437Z,16.80
2018-01-08T03:38:58.942Z,17.80
2018-01-08T03:41:26.438Z,17.87
2018-01-08T03:43:53.987Z,14.63
2018-01-08T03:46:21.519Z,15.03
2018-01-08T03:48:49.017Z,16.27
2018-01-08T03:51:16.496Z,13.63
2018-01-08T03:53:44.019Z,21.13
2018-01-08T03:56:11.512Z,15.27
2018-01-08T03:58:39.022Z,14.10
2018-01-08T04:01:06.521Z,17.67
2018-01-08T04:03:34.030Z,17.87
2018-01-08T04:06:01.741Z,19.87
2018-01-08T04:08:29.262Z,20.47
2018-01-08T04:10:56.783Z,14.93
2018-01-08T04:13:24.306Z,25.97
2018-01-08T04:15:51.795Z,22.97
2018-01-08T04:18:19.319Z,20.90
2018-01-08T04:20:46.851Z,16.03
2018-01-08T04:23:14.363Z,17.27
2018-01-08T04:25:41.890Z,13.47
2018-01-08T04:28:09.424Z,18.83
2018-01-08T04:30:36.963Z,16.33
2018-01-08T04:33:04.524Z,17.67
2018-01-08T04:35:32.053Z,17.60
2018-01-08T04:37:59.570Z,19.30
2018-01-08T04:40:27.083Z,18.77
2018-01-08T04:42:54.600Z,16.30
2018-01-08T04:45:22.142Z,18.53
2018-01-08T04:47:49.636Z,13.33
2018-01-08T04:50:17.159Z,15.30
2018-01-08T04:52:44.664Z,17.17
2018-01-08T04:55:12.177Z,18.60
2018-01-08T04:57:39.662Z,14.57
2018-01-08T05:00:07.184Z,18.83
2018-01-08T05:02:34.703Z,15.93
2018-01-08T05:05:02.261Z,17.87
2018-01-08T05:07:29.787Z,19.47
2018-01-08T05:09:57.318Z,17.70
2018-01-08T05:12:24.813Z,15.80
2018-01-08T05:14:52.339Z,17.13
2018-01-08T05:17:19.860Z,17.40
2018-01-08T05:19:47.376Z,16.13
2018-01-08T05:22:14.891Z,17.77
2018-01-08T05:24:42.402Z,16.87
2018-01-08T05:27:09.904Z,17.33
2018-01-08T05:29:37.410Z,19.47
2018-01-08T05:32:05.875Z,17.10
2018-01-08T05:34:33.364Z,20.87
2018-01-08T05:37:00.868Z,21.73
2018-01-08T05:39:28.379Z,21.43
2018-01-08T05:41:55.876Z,20.47
2018-01-08T05:44:23.409Z,24.63
2018-01-08T05:46:50.933Z,14.67
2018-01-08T05:49:18.461Z,18.23
2018-01-08T05:51:45.969Z,18.23
2018-01-08T05:54:13.481Z,15.80
2018-01-08T05:56:40.999Z,18.73
2018-01-08T05:59:08.496Z,18.07
2018-01-08T06:01:36.013Z,21.57
2018-01-08T06:04:03.530Z,23.13
2018-01-08T06:06:31.052Z,22.00
2018-01-08T06:08:58.584Z,20.00
2018-01-08T06:11:26.107Z,20.00
2018-01-08T06:13:53.671Z,19.13
2018-01-08T06:16:21.182Z,19.87
2018-01-08T06:18:48.716Z,22.10
2018-01-08T06:21:16.216Z,24.00
2018-01-08T06:23:43.711Z,21.53
2018-01-08T06:26:11.227Z,21.87
2018-01-08T06:28:38.743Z,14.83
2018-01-08T06:31:06.265Z,17.17
2018-01-08T06:33:33.819Z,17.50
2018-01-08T06:36:01.345Z,20.57
2018-01-08T06:38:28.851Z,19.50
2018-01-08T06:40:56.391Z,17.87
2018-01-08T06:43:24.094Z,19.03
2018-01-08T06:45:51.604Z,20.97
2018-01-08T06:48:19.111Z,14.47
2018-01-08T06:50:46.628Z,23.67
2018-01-08T06:53:14.195Z,21.83
2018-01-08T06:55:41.718Z,21.83
2018-01-08T06:58:10.079Z,22.73
2018-01-08T07:00:37.597Z,20.50
2018-01-08T07:03:05.252Z,20.60
2018-01-08T07:05:32.778Z,22.40
2018-01-08T07:08:00.299Z,22.60
2018-01-08T07:10:27.811Z,22.83
2018-01-08T07:12:55.825Z,21.37
2018-01-08T07:15:23.343Z,23.40
2018-01-08T07:17:50.887Z,19.27
2018-01-08T07:20:18.403Z,23.23
2018-01-08T07:22:45.916Z,24.03
2018-01-08T07:25:13.431Z,21.40
2018-01-08T07:27:40.951Z,19.13
2018-01-08T07:30:08.488Z,20.97
2018-01-08T07:32:36.019Z,25.07
2018-01-08T07:35:03.531Z,19.60
2018-01-08T07:37:31.067Z,24.57
2018-01-08T07:39:58.577Z,20.27
2018-01-08T07:42:26.100Z,17.40
2018-01-08T07:44:53.613Z,22.13
2018-01-08T07:47:21.122Z,24.40
2018-01-08T07:49:48.660Z,23.53
2018-01-08T07:52:16.171Z,20.30
2018-01-08T07:54:43.698Z,23.20
2018-01-08T07:57:11.223Z,21.07
2018-01-08T07:59:38.744Z,32.10
2018-01-08T08:02:06.283Z,25.90
2018-01-08T08:04:33.796Z,19.93
2018-01-08T08:07:01.294Z,18.23
2018-01-08T08:09:28.826Z,18.60
2018-01-08T08:11:56.308Z,19.63
2018-01-08T08:14:23.844Z,25.43
2018-01-08T08:16:51.851Z,22.60
2018-01-08T08:19:19.343Z,23.83
2018-01-08T08:21:46.871Z,24.57
2018-01-08T08:24:14.365Z,21.13
2018-01-08T08:26:41.883Z,16.93
2018-01-08T08:29:09.386Z,18.37
2018-01-08T08:31:36.925Z,20.33
2018-01-08T08:34:04.430Z,18.47
2018-01-08T08:36:31.936Z,20.07
2018-01-08T08:38:59.443Z,15.63
2018-01-08T08:41:26.961Z,20.97
2018-01-08T08:43:54.464Z,19.10
2018-01-08T08:46:21.941Z,18.47
2018-01-08T08:48:49.426Z,16.77
2018-01-08T08:51:16.931Z,17.57
2018-01-08T08:53:44.454Z,16.10
2018-01-08T08:56:11.963Z,18.43
2018-01-08T08:58:39.444Z,16.87
2018-01-08T09:01:06.933Z,17.80
2018-01-08T09:03:34.417Z,15.13
2018-01-08T09:06:01.916Z,24.43
2018-01-08T09:08:29.423Z,18.67
2018-01-08T09:10:56.948Z,15.50
2018-01-08T09:13:24.482Z,15.77
2018-01-08T09:15:52.896Z,16.20
2018-01-08T09:18:20.404Z,18.13
2018-01-08T09:20:47.930Z,19.73
2018-01-08T09:23:15.412Z,14.37
2018-01-08T09:25:42.935Z,19.03
2018-01-08T09:28:10.415Z,15.37
2018-01-08T09:30:37.905Z,20.50
2018-01-08T09:33:05.401Z,16.67
2018-01-08T09:35:32.925Z,13.97
2018-01-08T09:38:00.427Z,14.97
2018-01-08T09:40:27.918Z,13.97
2018-01-08T09:42:55.424Z,15.63
2018-01-08T09:45:23.504Z,16.03
2018-01-08T09:47:51.005Z,13.63
2018-01-08T09:50:18.480Z,13.40
2018-01-08T09:52:45.969Z,13.70
2018-01-08T09:55:13.483Z,12.90
2018-01-08T09:57:41.002Z,13.20
2018-01-08T10:00:09.108Z,13.33
2018-01-08T10:02:48.264Z,13.40
2018-01-08T10:05:27.629Z,12.43
2018-01-08T10:08:06.773Z,15.57
2018-01-08T10:10:49.752Z,15.20
2018-01-08T10:13:29.104Z,12.20
2018-01-08T10:16:08.380Z,12.57
2018-01-08T10:18:35.324Z,13.67
2018-01-08T10:21:02.835Z,15.77
2018-01-08T10:23:30.332Z,13.77
2018-01-08T10:25:57.836Z,11.37
2018-01-08T10:28:25.331Z,12.00
2018-01-08T10:30:52.835Z,12.33
2018-01-08T10:33:20.548Z,13.10
2018-01-08T10:35:48.036Z,14.90
2018-01-08T10:38:15.534Z,12.23
2018-01-08T10:40:43.637Z,9.43
2018-01-08T10:43:16.764Z,13.90
2018-01-08T10:45:49.900Z,12.53
2018-01-08T10:48:22.920Z,8.90
2018-01-08T10:50:55.901Z,8.27
2018-01-08T10:53:24.330Z,9.67
2018-01-08T10:55:51.819Z,6.23
2018-01-08T10:58:19.304Z,8.17
2018-01-08T11:00:52.470Z,5.80
2018-01-08T11:03:25.448Z,7.77
2018-01-08T11:05:52.937Z,9.73
2018-01-08T11:08:20.432Z,12.87
2018-01-08T11:10:47.943Z,10.67
2018-01-08T11:13:16.132Z,10.63
2018-01-08T11:15:43.636Z,10.07
2018-01-08T11:18:11.116Z,9.40
2018-01-08T11:20:38.615Z,8.50
2018-01-08T11:23:06.096Z,10.13
2018-01-08T11:25:33.577Z,12.47
2018-01-08T11:28:01.060Z,9.23
2018-01-08T11:30:28.893Z,7.93
2018-01-08T11:32:56.393Z,10.77
2018-01-08T11:35:23.887Z,7.00
2018-01-08T11:37:51.391Z,9.60
2018-01-08T11:40:18.899Z,8.93
2018-01-08T11:42:46.399Z,8.63
2018-01-08T11:45:13.911Z,10.73
2018-01-08T11:47:41.398Z,9.37
2018-01-08T11:50:08.933Z,11.33
2018-01-08T11:52:36.424Z,7.93
2018-01-08T11:55:03.923Z,9.67
2018-01-08T11:57:31.443Z,10.07
2018-01-08T11:59:59.016Z,7.43
2018-01-08T12:02:26.518Z,11.03
2018-01-08T12:04:54.052Z,10.20
2018-01-08T12:07:21.531Z,8.70
2018-01-08T12:09:49.050Z,6.87
2018-01-08T12:12:16.551Z,9.33
2018-01-08T12:14:44.048Z,10.37
2018-01-08T12:17:11.559Z,16.90
2018-01-08T12:19:39.060Z,9.23
2018-01-08T12:22:06.567Z,10.23
2018-01-08T12:24:34.097Z,9.77
2018-01-08T12:27:01.557Z,8.53
2018-01-08T12:29:29.040Z,10.60
2018-01-08T12:31:56.521Z,9.37
2018-01-08T12:34:24.027Z,11.83
2018-01-08T12:36:51.538Z,12.27
2018-01-08T12:39:19.037Z,9.53
2018-01-08T12:41:46.532Z,10.03
2018-01-08T12:44:14.023Z,9.70
2018-01-08T12:46:41.517Z,8.87
2018-01-08T12:49:09.029Z,9.10
2018-01-08T12:51:37.391Z,10.90
2018-01-08T12:54:04.893Z,8.70
2018-01-08T12:56:32.375Z,7.57
2018-01-08T12:58:59.868Z,20.83
2018-01-08T13:01:27.378Z,14.47
2018-01-08T13:03:54.878Z,8.90
2018-01-08T13:06:22.365Z,8.30
2018-01-08T13:08:49.887Z,8.97
2018-01-08T13:11:17.364Z,8.87
2018-01-08T13:13:44.923Z,8.27
2018-01-08T13:16:12.409Z,8.83
2018-01-08T13:18:39.892Z,16.73
2018-01-08T13:21:07.399Z,8.90
2018-01-08T13:23:34.893Z,11.03
2018-01-08T13:26:02.368Z,8.97
2018-01-08T13:28:29.871Z,14.27
2018-01-08T13:30:57.395Z,9.90
2018-01-08T13:33:25.529Z,10.23
2018-01-08T13:35:53.017Z,10.87
2018-01-08T13:38:20.504Z,10.03
2018-01-08T13:40:48.039Z,6.07
2018-01-08T13:43:15.541Z,9.93
2018-01-08T13:45:43.033Z,10.03
2018-01-08T13:48:10.539Z,8.37
2018-01-08T13:50:38.024Z,12.03
2018-01-08T13:53:05.513Z,9.83
2018-01-08T13:55:33.566Z,9.27
2018-01-08T13:58:01.045Z,12.07
2018-01-08T14:00:28.520Z,6.53
2018-01-08T14:02:57.685Z,12.47
2018-01-08T14:05:25.177Z,11.07
2018-01-08T14:07:53.561Z,12.50
2018-01-08T14:10:21.072Z,8.57
2018-01-08T14:12:48.593Z,13.93
2018-01-08T14:15:16.091Z,8.47
2018-01-08T14:17:43.568Z,8.57
2018-01-08T14:20:11.067Z,9.43
2018-01-08T14:22:38.559Z,10.67
2018-01-08T14:25:06.064Z,10.43
2018-01-08T14:27:33.586Z,12.60
2018-01-08T14:30:01.095Z,10.20
2018-01-08T14:32:28.596Z,7.07
2018-01-08T14:34:56.105Z,10.33
2018-01-08T14:37:26.519Z,13.80
2018-01-08T14:39:54.039Z,7.10
2018-01-08T14:42:21.606Z,11.27
2018-01-08T14:44:49.089Z,7.43
2018-01-08T14:47:16.564Z,9.10
2018-01-08T14:49:44.071Z,11.33
2018-01-08T14:52:11.571Z,7.70
2018-01-08T14:54:39.089Z,6.10
2018-01-08T14:57:06.577Z,8.13
2018-01-08T14:59:34.073Z,7.20
2018-01-08T15:02:01.587Z,12.13
2018-01-08T15:04:29.107Z,10.63
2018-01-08T15:06:56.599Z,9.57
2018-01-08T15:09:24.082Z,9.27
2018-01-08T15:11:51.560Z,7.77
2018-01-08T15:14:19.040Z,10.17
2018-01-08T15:16:46.533Z,7.63
2018-01-08T15:19:14.020Z,9.40
2018-01-08T15:21:41.518Z,8.03
2018-01-08T15:24:09.018Z,8.47
2018-01-08T15:26:36.528Z,8.47
2018-01-08T15:29:04.065Z,6.83
2018-01-08T15:31:31.575Z,9.33
2018-01-08T15:33:59.083Z,8.33
2018-01-08T15:36:26.811Z,7.90
2018-01-08T15:38:55.144Z,9.97
2018-01-08T15:41:22.612Z,9.97
2018-01-08T15:43:50.116Z,7.70
2018-01-08T15:46:17.614Z,7.80
2018-01-08T15:48:45.122Z,7.47
2018-01-08T15:51:12.636Z,8.00
2018-01-08T15:53:40.112Z,8.90
2018-01-08T15:56:07.632Z,5.83
2018-01-08T15:58:35.117Z,6.80
2018-01-08T16:01:02.593Z,6.37
2018-01-08T16:03:30.098Z,9.97
2018-01-08T16:05:57.607Z,6.23
2018-01-08T16:08:25.147Z,8.87
2018-01-08T16:10:52.684Z,7.73
2018-01-08T16:13:20.185Z,5.33
2018-01-08T16:15:47.751Z,6.03
2018-01-08T16:18:15.926Z,6.80
2018-01-08T16:20:43.417Z,7.53
2018-01-08T16:23:10.904Z,7.13
2018-01-08T16:25:38.389Z,7.67
2018-01-08T16:28:15.542Z,6.73
2018-01-08T16:30:43.059Z,7.70
2018-01-08T16:33:10.556Z,7.43
2018-01-08T16:35:38.102Z,8.80
2018-01-08T16:38:05.925Z,7.07
2018-01-08T16:40:33.437Z,8.10
2018-01-08T16:43:00.916Z,7.00
2018-01-08T16:45:28.426Z,7.37
2018-01-08T16:47:56.793Z,5.63
2018-01-08T16:50:29.338Z,9.00
2018-01-08T16:52:56.828Z,7.73
2018-01-08T16:55:24.316Z,6.97
2018-01-08T16:57:51.811Z,6.20
2018-01-08T17:00:19.356Z,6.83
2018-01-08T17:02:46.856Z,8.57
2018-01-08T17:05:14.458Z,6.83
2018-01-08T17:07:41.979Z,8.53
2018-01-08T17:10:09.467Z,9.57
2018-01-08T17:12:36.955Z,8.20
2018-01-08T17:15:04.475Z,10.50
2018-01-08T17:17:31.966Z,5.90
2018-01-08T17:19:59.465Z,6.80
2018-01-08T17:22:26.987Z,7.73
2018-01-08T17:24:54.516Z,7.80
2018-01-08T17:27:22.019Z,9.47
2018-01-08T17:29:49.525Z,7.40
2018-01-08T17:32:17.017Z,6.47
2018-01-08T17:34:44.526Z,8.90
2018-01-08T17:37:12.029Z,6.43
2018-01-08T17:39:39.521Z,7.30
2018-01-08T17:42:07.020Z,8.03
2018-01-08T17:44:34.516Z,7.33
2018-01-08T17:47:02.000Z,6.53
2018-01-08T17:49:29.485Z,8.60
2018-01-08T17:51:57.827Z,5.90
2018-01-08T17:54:25.379Z,7.73
2018-01-08T17:56:52.868Z,8.30
2018-01-08T17:59:20.364Z,9.03
2018-01-08T18:01:47.862Z,5.53
2018-01-08T18:04:15.356Z,6.33
2018-01-08T18:06:42.873Z,9.90
2018-01-08T18:09:10.365Z,7.37
2018-01-08T18:11:38.106Z,9.13
2018-01-08T18:14:05.610Z,7.10
2018-01-08T18:16:33.115Z,8.60
2018-01-08T18:19:00.596Z,8.30
2018-01-08T18:21:28.102Z,9.83
2018-01-08T18:23:55.619Z,6.47
2018-01-08T18:26:23.161Z,8.37
2018-01-08T18:28:50.697Z,7.60
2018-01-08T18:31:18.203Z,7.20
2018-01-08T18:33:45.720Z,7.47
2018-01-08T18:36:13.204Z,15.17
2018-01-08T18:38:40.703Z,8.00
2018-01-08T18:41:08.190Z,8.67
2018-01-08T18:43:35.699Z,9.57
2018-01-08T18:46:03.203Z,8.73
2018-01-08T18:48:30.698Z,8.97
2018-01-08T18:50:58.191Z,7.53
2018-01-08T18:53:25.680Z,6.87
2018-01-08T18:55:53.181Z,8.60
2018-01-08T18:58:20.793Z,10.67
2018-01-08T19:00:48.299Z,9.67
2018-01-08T19:03:15.844Z,10.33
2018-01-08T19:05:43.356Z,8.53
2018-01-08T19:08:10.953Z,8.40
2018-01-08T19:10:38.452Z,9.13
2018-01-08T19:13:08.555Z,11.70
2018-01-08T19:15:36.086Z,10.47
2018-01-08T19:18:03.561Z,13.33
2018-01-08T19:20:31.294Z,8.87
2018-01-08T19:22:58.783Z,7.50
2018-01-08T19:25:26.323Z,9.63
2018-01-08T19:27:53.803Z,9.20
2018-01-08T19:30:21.288Z,9.47
2018-01-08T19:32:48.819Z,8.67
2018-01-08T19:35:17.198Z,9.40
2018-01-08T19:37:44.708Z,10.47
2018-01-08T19:40:13.027Z,10.13
2018-01-08T19:42:40.565Z,12.37
2018-01-08T19:45:08.090Z,10.77
2018-01-08T19:47:43.014Z,11.27
2018-01-08T19:50:10.532Z,12.37
2018-01-08T19:52:39.977Z,11.00
2018-01-08T19:55:10.546Z,10.27
2018-01-08T19:57:39.435Z,16.03
2018-01-08T20:00:08.347Z,11.50
2018-01-08T20:02:36.732Z,9.57
2018-01-08T20:05:08.187Z,12.27
2018-01-08T20:07:35.688Z,9.70
2018-01-08T20:10:05.023Z,12.53
2018-01-08T20:12:32.557Z,12.53
2018-01-08T20:15:00.145Z,10.90
2018-01-08T20:17:27.998Z,13.17
2018-01-08T20:19:58.370Z,13.17
2018-01-08T20:22:25.886Z,12.43
2018-01-08T20:24:53.404Z,12.17
2018-01-08T20:27:20.880Z,10.50
2018-01-08T20:29:48.403Z,13.60
2018-01-08T20:32:15.917Z,11.47
2018-01-08T20:34:46.806Z,11.07
2018-01-08T20:37:14.315Z,11.50
2018-01-08T20:39:41.808Z,13.57
2018-01-08T20:42:11.229Z,10.90
2018-01-08T20:44:39.579Z,11.70
2018-01-08T20:47:09.767Z,14.77
2018-01-08T20:49:37.306Z,14.10
2018-01-08T20:52:04.808Z,12.33
2018-01-08T20:54:32.543Z,12.60
2018-01-08T20:57:00.738Z,10.60
2018-01-08T20:59:28.269Z,10.47
2018-01-08T21:01:55.781Z,16.20
2018-01-08T21:04:23.964Z,11.70
2018-01-08T21:06:51.527Z,16.53
2018-01-08T21:09:19.005Z,14.40
2018-01-08T21:11:46.503Z,13.13
2018-01-08T21:14:14.059Z,12.10
2018-01-08T21:16:41.604Z,11.80
2018-01-08T21:19:09.104Z,13.07
2018-01-08T21:21:36.644Z,12.97
2018-01-08T21:24:04.186Z,13.40
2018-01-08T21:26:31.684Z,13.83
2018-01-08T21:28:59.202Z,11.80
2018-01-08T21:31:29.522Z,10.27
2018-01-08T21:33:57.045Z,13.57
2018-01-08T21:36:24.590Z,17.40
2018-01-08T21:38:53.131Z,14.43
2018-01-08T21:41:20.648Z,13.30
2018-01-08T21:43:48.159Z,14.47
2018-01-08T21:46:15.672Z,16.93
2018-01-08T21:48:43.176Z,11.70
2018-01-08T21:51:10.670Z,19.47
2018-01-08T21:53:38.174Z,15.13
2018-01-08T21:56:05.691Z,14.60
2018-01-08T21:58:33.164Z,14.00
2018-01-08T22:01:00.671Z,17.33
2018-01-08T22:03:28.164Z,15.13
2018-01-08T22:05:55.667Z,18.63
2018-01-08T22:08:23.144Z,13.27
2018-01-08T22:10:50.629Z,15.03
2018-01-08T22:13:18.131Z,16.07
2018-01-08T22:15:45.631Z,12.73
2018-01-08T22:18:13.139Z,16.53
2018-01-08T22:20:40.621Z,18.50
2018-01-08T22:23:08.117Z,16.50
2018-01-08T22:25:35.614Z,20.43
2018-01-08T22:28:03.114Z,17.43
2018-01-08T22:30:30.611Z,14.87
2018-01-08T22:32:58.119Z,19.27
2018-01-08T22:35:25.604Z,18.40
2018-01-08T22:37:56.046Z,14.80
2018-01-08T22:40:23.546Z,17.07
2018-01-08T22:42:51.040Z,18.60
2018-01-08T22:45:18.555Z,17.90
2018-01-08T22:47:46.992Z,19.23
2018-01-08T22:50:14.577Z,15.10
2018-01-08T22:52:42.086Z,18.27
2018-01-08T22:55:09.609Z,17.27
2018-01-08T22:57:37.089Z,17.27
2018-01-08T23:00:04.580Z,20.43
2018-01-08T23:02:32.061Z,18.67
2018-01-08T23:04:59.554Z,19.73
2018-01-08T23:07:27.058Z,16.17
2018-01-08T23:09:54.557Z,18.70
2018-01-08T23:12:22.038Z,18.57
2018-01-08T23:14:49.558Z,15.60
2018-01-08T23:17:17.062Z,15.50
2018-01-08T23:19:44.576Z,16.13
2018-01-08T23:22:12.083Z,14.37
2018-01-08T23:24:39.574Z,16.43
2018-01-08T23:27:07.085Z,18.87
2018-01-08T23:29:34.594Z,16.87
2018-01-08T23:32:02.097Z,14.07
2018-01-08T23:34:29.580Z,19.50
2018-01-08T23:36:57.094Z,15.27
2018-01-08T23:39:24.585Z,15.60
2018-01-08T23:41:52.103Z,21.50
2018-01-08T23:44:19.598Z,16.23
2018-01-08T23:46:47.128Z,21.27
2018-01-08T23:49:14.604Z,18.27
2018-01-08T23:51:42.148Z,17.33
2018-01-08T23:54:09.690Z,17.07
2018-01-08T23:56:37.426Z,19.27
2018-01-08T23:59:04.943Z,17.63
